createdAt,value
2022-10-15T00:02:18.080Z,1007.657
2022-10-15T00:07:15.987Z,1007.553
2022-10-15T00:12:16.430Z,1007.518
2022-10-15T00:17:15.919Z,1007.489
2022-10-15T00:22:16.373Z,1007.42
2022-10-15T00:27:15.970Z,1007.421
2022-10-15T00:32:16.319Z,1007.401
2022-10-15T00:37:17.634Z,1007.36
2022-10-15T00:42:17.152Z,1007.439
2022-10-15T00:47:20.042Z,1007.412
2022-10-15T00:52:17.848Z,1007.388
2022-10-15T00:57:16.605Z,1007.387
2022-10-15T01:02:16.829Z,1007.389
2022-10-15T01:12:20.007Z,1007.377
2022-10-15T01:17:24.221Z,1007.274
2022-10-15T01:22:20.191Z,1007.248
2022-10-15T01:27:27.224Z,1007.186
2022-10-15T01:32:18.930Z,1007.154
2022-10-15T01:37:20.915Z,1007.112
2022-10-15T01:42:19.259Z,1007.095
2022-10-15T01:47:18.110Z,1007.066
2022-10-15T01:52:18.402Z,1007.026
2022-10-15T01:57:17.388Z,1006.984
2022-10-15T02:02:16.455Z,1006.952
2022-10-15T02:07:21.127Z,1006.836
2022-10-15T02:12:25.070Z,1006.773
2022-10-15T02:17:16.428Z,1006.755
2022-10-15T02:22:18.580Z,1006.705
2022-10-15T02:27:18.436Z,1006.672
2022-10-15T02:32:18.182Z,1006.69
2022-10-15T02:37:16.993Z,1006.676
2022-10-15T02:42:17.432Z,1006.624
2022-10-15T02:47:16.581Z,1006.577
2022-10-15T02:52:28.274Z,1006.48
2022-10-15T02:57:15.962Z,1006.474
2022-10-15T03:02:18.525Z,1006.45
2022-10-15T03:07:15.947Z,1006.417
2022-10-15T03:12:17.268Z,1006.335
2022-10-15T03:17:16.021Z,1006.299
2022-10-15T03:22:17.576Z,1006.32
2022-10-15T03:27:17.324Z,1006.317
2022-10-15T03:32:16.292Z,1006.248
2022-10-15T03:37:17.222Z,1006.308
2022-10-15T03:42:16.365Z,1006.253
2022-10-15T03:47:19.111Z,1006.22
2022-10-15T03:52:17.273Z,1006.203
2022-10-15T03:57:15.930Z,1006.234
2022-10-15T04:02:16.536Z,1006.242
2022-10-15T04:07:16.003Z,1006.256
2022-10-15T04:12:16.333Z,1006.267
2022-10-15T04:17:16.039Z,1006.271
2022-10-15T04:22:16.353Z,1006.277
2022-10-15T04:32:17.651Z,1006.333
2022-10-15T04:37:17.477Z,1006.277
2022-10-15T04:42:18.884Z,1006.279
2022-10-15T04:47:15.906Z,1006.236
2022-10-15T04:52:15.950Z,1006.205
2022-10-15T04:57:16.042Z,1006.182
2022-10-15T05:02:16.089Z,1006.172
2022-10-15T05:07:19.080Z,1006.194
2022-10-15T05:12:18.858Z,1006.183
2022-10-15T05:17:16.065Z,1006.162
2022-10-15T05:22:18.804Z,1006.121
2022-10-15T05:27:16.329Z,1006.061
2022-10-15T05:37:18.948Z,1006.135
2022-10-15T05:42:20.824Z,1006.086
2022-10-15T05:47:18.889Z,1006.029
2022-10-15T05:52:16.715Z,1006.095
2022-10-15T05:57:18.262Z,1006.127
2022-10-15T06:02:17.440Z,1006.125
2022-10-15T06:07:18.656Z,1006.101
2022-10-15T06:12:18.105Z,1006.123
2022-10-15T06:17:17.102Z,1006.064
2022-10-15T06:22:15.947Z,1006.055
2022-10-15T06:27:15.952Z,1006.025
2022-10-15T06:32:17.050Z,1005.999
2022-10-15T06:37:18.746Z,1005.964
2022-10-15T06:42:17.355Z,1005.966
2022-10-15T06:47:15.996Z,1005.953
2022-10-15T06:52:15.787Z,1006.037
2022-10-15T06:57:20.346Z,1005.945
2022-10-15T07:02:17.595Z,1005.992
2022-10-15T07:07:15.908Z,1006.014
2022-10-15T07:12:17.966Z,1005.946
2022-10-15T07:17:15.864Z,1006.04
2022-10-15T07:22:15.816Z,1006.009
2022-10-15T07:27:19.415Z,1006.06
2022-10-15T07:32:16.391Z,1006.036
2022-10-15T07:37:16.026Z,1006.05
2022-10-15T07:42:15.984Z,1006.007
2022-10-15T07:47:15.974Z,1005.856
2022-10-15T07:52:18.423Z,1005.773
2022-10-15T07:57:15.981Z,1005.88
2022-10-15T08:02:19.110Z,1005.856
2022-10-15T08:07:15.992Z,1005.904
2022-10-15T08:12:17.527Z,1005.91
2022-10-15T08:17:15.916Z,1005.949
2022-10-15T08:22:16.465Z,1006
2022-10-15T08:27:15.848Z,1005.941
2022-10-15T08:32:16.477Z,1006.012
2022-10-15T08:37:15.937Z,1005.977
2022-10-15T08:42:19.443Z,1005.9
2022-10-15T08:47:20.770Z,1005.87
2022-10-15T08:52:21.359Z,1005.866
2022-10-15T08:57:24.084Z,1005.835
2022-10-15T09:02:20.504Z,1005.762
2022-10-15T09:07:18.502Z,1005.811
2022-10-15T09:12:26.101Z,1005.795
2022-10-15T09:17:26.795Z,1005.734
2022-10-15T09:22:18.811Z,1005.743
2022-10-15T09:27:24.102Z,1005.647
2022-10-15T09:32:21.838Z,1005.586
2022-10-15T09:37:19.169Z,1005.54
2022-10-15T09:42:23.195Z,1005.501
2022-10-15T09:47:26.609Z,1005.52
2022-10-15T09:52:24.136Z,1005.48
2022-10-15T09:57:18.235Z,1005.339
2022-10-15T10:02:24.773Z,1005.273
2022-10-15T10:07:28.029Z,1005.221
2022-10-15T10:12:23.245Z,1005.232
2022-10-15T10:17:29.767Z,1005.121
2022-10-15T10:22:21.190Z,1005.153
2022-10-15T10:27:24.892Z,1005.203
2022-10-15T10:32:23.224Z,1005.148
2022-10-15T10:37:15.816Z,1005.147
2022-10-15T10:42:25.881Z,1005.133
2022-10-15T10:47:23.045Z,1004.983
2022-10-15T10:52:27.202Z,1004.915
2022-10-15T10:57:18.525Z,1004.937
2022-10-15T11:02:19.386Z,1004.975
2022-10-15T11:07:25.252Z,1004.922
2022-10-15T11:12:22.993Z,1004.894
2022-10-15T11:17:18.368Z,1004.856
2022-10-15T11:22:23.191Z,1004.804
2022-10-15T11:27:26.313Z,1004.763
2022-10-15T11:32:25.603Z,1004.839
2022-10-15T11:37:25.492Z,1004.808
2022-10-15T11:42:23.738Z,1004.755
2022-10-15T11:47:26.816Z,1004.743
2022-10-15T11:52:26.319Z,1004.734
2022-10-15T11:57:19.836Z,1004.76
2022-10-15T12:02:19.704Z,1004.694
2022-10-15T12:07:22.121Z,1004.708
2022-10-15T12:12:21.674Z,1004.657
2022-10-15T12:17:20.415Z,1004.667
2022-10-15T12:22:18.871Z,1004.667
2022-10-15T12:27:30.132Z,1004.739
2022-10-15T12:32:24.471Z,1004.716
2022-10-15T12:37:21.044Z,1004.725
2022-10-15T12:42:27.888Z,1004.768
2022-10-15T12:47:17.270Z,1004.771
2022-10-15T12:52:26.783Z,1004.817
2022-10-15T12:57:27.149Z,1004.841
2022-10-15T13:02:26.792Z,1004.816
2022-10-15T13:07:19.238Z,1004.575
2022-10-15T13:12:26.927Z,1004.565
2022-10-15T13:17:22.762Z,1004.527
2022-10-15T13:22:24.161Z,1004.709
2022-10-15T13:27:25.991Z,1004.841
2022-10-15T13:32:18.907Z,1004.877
2022-10-15T13:37:22.990Z,1004.86
2022-10-15T13:42:18.026Z,1004.976
2022-10-15T13:47:34.053Z,1004.939
2022-10-15T13:52:15.732Z,1004.956
2022-10-15T13:57:18.523Z,1004.933
2022-10-15T14:02:19.886Z,1004.97
2022-10-15T14:07:29.366Z,1005.039
2022-10-15T14:12:15.987Z,1005.008
2022-10-15T14:17:17.289Z,1004.951
2022-10-15T14:22:27.314Z,1005.132
2022-10-15T14:27:18.646Z,1005.219
2022-10-15T14:32:32.586Z,1005.264
2022-10-15T14:37:28.526Z,1005.32
2022-10-15T14:42:47.630Z,1005.408
2022-10-15T14:47:09.764Z,1005.509
2022-10-15T14:52:11.627Z,1005.521
2022-10-15T14:57:09.487Z,1005.554
2022-10-15T15:02:11.415Z,1005.563
2022-10-15T15:07:10.762Z,1005.695
2022-10-15T15:12:09.258Z,1005.733
2022-10-15T15:17:09.016Z,1005.738
2022-10-15T15:22:10.114Z,1005.654
2022-10-15T15:27:09.230Z,1005.701
2022-10-15T15:32:09.206Z,1005.751
2022-10-15T15:37:15.694Z,1005.798
2022-10-15T15:42:09.069Z,1005.83
2022-10-15T15:47:10.822Z,1005.892
2022-10-15T15:52:10.380Z,1005.893
2022-10-15T15:57:09.035Z,1005.961
2022-10-15T16:02:09.242Z,1005.946
2022-10-15T16:07:11.815Z,1006.028
2022-10-15T16:12:09.454Z,1005.998
2022-10-15T16:17:09.090Z,1006.059
2022-10-15T16:22:09.382Z,1006.149
2022-10-15T16:27:08.847Z,1006.198
2022-10-15T16:32:09.210Z,1006.177
2022-10-15T16:37:09.801Z,1006.209
2022-10-15T16:42:09.202Z,1006.203
2022-10-15T16:47:09.057Z,1006.269
2022-10-15T16:52:09.083Z,1006.365
2022-10-15T16:57:09.248Z,1006.42
2022-10-15T17:02:09.151Z,1006.472
2022-10-15T17:07:09.001Z,1006.521
2022-10-15T17:12:09.170Z,1006.579
2022-10-15T17:17:12.169Z,1006.66
2022-10-15T17:22:08.842Z,1006.735
2022-10-15T17:27:10.456Z,1006.725
2022-10-15T17:32:08.876Z,1006.778
2022-10-15T17:37:09.180Z,1006.991
2022-10-15T17:42:09.248Z,1006.962
2022-10-15T17:47:10.054Z,1006.934
2022-10-15T17:52:10.472Z,1006.953
2022-10-15T17:57:09.170Z,1006.945
2022-10-15T18:02:09.298Z,1007.04
2022-10-15T18:07:09.536Z,1007.015
2022-10-15T18:12:08.931Z,1007.083
2022-10-15T18:17:09.034Z,1007.068
2022-10-15T18:22:09.087Z,1007.253
2022-10-15T18:27:10.638Z,1007.279
2022-10-15T18:32:09.011Z,1007.347
2022-10-15T18:37:09.189Z,1007.314
2022-10-15T18:42:09.099Z,1007.401
2022-10-15T18:47:11.556Z,1007.342
2022-10-15T18:52:21.749Z,1007.307
2022-10-15T18:57:09.289Z,1007.368
2022-10-15T19:02:09.322Z,1007.321
2022-10-15T19:07:09.151Z,1007.365
2022-10-15T19:12:09.219Z,1007.297
2022-10-15T19:17:09.049Z,1007.413
2022-10-15T19:22:08.796Z,1007.4
2022-10-15T19:32:08.980Z,1007.534
2022-10-15T19:37:09.265Z,1007.57
2022-10-15T19:42:08.868Z,1007.61
2022-10-15T19:47:09.024Z,1007.633
2022-10-15T19:52:09.116Z,1007.63
2022-10-15T19:57:09.046Z,1007.685
2022-10-15T20:02:11.473Z,1007.773
2022-10-15T20:07:09.198Z,1007.81
2022-10-15T20:12:10.293Z,1007.777
2022-10-15T20:17:09.015Z,1007.805
2022-10-15T20:22:09.106Z,1007.808
2022-10-15T20:27:09.008Z,1007.832
2022-10-15T20:32:23.496Z,1007.917
2022-10-15T20:37:09.050Z,1007.967
2022-10-15T20:42:08.833Z,1007.933
2022-10-15T20:47:10.849Z,1008.01
2022-10-15T20:52:10.448Z,1008.085
2022-10-15T20:57:09.100Z,1008.184
2022-10-15T21:02:09.987Z,1008.266
2022-10-15T21:07:09.700Z,1008.331
2022-10-15T21:12:10.215Z,1008.424
2022-10-15T21:17:09.155Z,1008.401
2022-10-15T21:22:09.142Z,1008.464
2022-10-15T21:27:10.047Z,1008.464
2022-10-15T21:32:10.568Z,1008.414
2022-10-15T21:37:09.274Z,1008.476
2022-10-15T21:42:08.932Z,1008.521
2022-10-15T21:47:11.626Z,1008.626
2022-10-15T21:52:09.032Z,1008.609
2022-10-15T21:57:08.835Z,1008.597
2022-10-15T22:02:09.096Z,1008.634
2022-10-15T22:07:11.071Z,1008.638
2022-10-15T22:12:09.146Z,1008.684
2022-10-15T22:17:08.878Z,1008.647
2022-10-15T22:22:08.971Z,1008.697
2022-10-15T22:27:08.867Z,1008.792
2022-10-15T22:32:09.057Z,1008.796
2022-10-15T22:37:08.830Z,1008.787
2022-10-15T22:42:09.241Z,1008.866
2022-10-15T22:47:11.646Z,1008.829
2022-10-15T22:52:09.228Z,1008.781
2022-10-15T22:57:09.955Z,1008.693
2022-10-15T23:02:09.206Z,1008.691
2022-10-15T23:07:08.792Z,1008.754
2022-10-15T23:12:09.048Z,1008.86
2022-10-15T23:17:08.779Z,1008.857
2022-10-15T23:22:09.560Z,1008.873
2022-10-15T23:27:09.511Z,1008.831
2022-10-15T23:32:09.238Z,1008.829
2022-10-15T23:37:08.741Z,1008.789
2022-10-15T23:42:09.202Z,1008.845
2022-10-15T23:47:09.093Z,1008.796
2022-10-15T23:52:11.389Z,1008.831
2022-10-15T23:57:08.840Z,1008.808
